Time;durP1;ratioP1;P1;durP2;ratioP2;P2;SDS_P1;SDS_P2;PMS_P1;PMS_P2;Temp;Humidity;BMP_temperature;BMP_pressure;BME280_temperature;BME280_humidity;BME280_pressure;Samples;Min_cycle;Max_cycle;Signal;HPM_P1;HPM_P2
2023/05/13 00:00:24;;;;;;;9.23;7.82;;;12.60;80.80;;;;;;5049752;28;22013;-44
2023/05/13 00:02:52;;;;;;;12.05;8.07;;;12.60;81.10;;;;;;5052606;28;20029;-44
2023/05/13 00:05:21;;;;;;;11.18;7.47;;;12.50;81.40;;;;;;5051302;28;20559;-44
2023/05/13 00:07:49;;;;;;;11.40;8.05;;;12.50;81.70;;;;;;5052547;28;20037;-44
2023/05/13 00:10:15;;;;;;;17.70;9.15;;;12.50;81.90;;;;;;5051858;28;20094;-47
2023/05/13 00:12:43;;;;;;;13.40;8.63;;;12.40;82.10;;;;;;5055353;28;20037;-44
2023/05/13 00:15:11;;;;;;;9.68;8.68;;;12.40;82.30;;;;;;5055531;28;20025;-45
2023/05/13 00:17:40;;;;;;;9.65;8.65;;;12.40;82.40;;;;;;5045843;28;20041;-44
2023/05/13 00:20:10;;;;;;;12.73;8.65;;;12.40;82.60;;;;;;5037272;28;20087;-45
2023/05/13 00:22:39;;;;;;;11.40;9.00;;;12.30;83.00;;;;;;5053252;28;20029;-48
2023/05/13 00:25:05;;;;;;;11.77;8.90;;;12.40;82.90;;;;;;5055792;28;20498;-47
2023/05/13 00:27:32;;;;;;;18.67;11.15;;;12.30;83.00;;;;;;5036723;28;20470;-45
2023/05/13 00:30:04;;;;;;;11.15;8.75;;;12.30;83.00;;;;;;5036465;28;20362;-44
2023/05/13 00:32:31;;;;;;;11.48;8.73;;;12.30;83.10;;;;;;5051647;28;20534;-44
2023/05/13 00:34:57;;;;;;;11.52;8.80;;;12.20;83.30;;;;;;5053370;28;20442;-44
2023/05/13 00:37:26;;;;;;;11.10;9.90;;;12.20;83.30;;;;;;5048617;28;20106;-44
2023/05/13 00:39:53;;;;;;;16.23;10.90;;;12.20;83.30;;;;;;5054850;28;20032;-44
2023/05/13 00:42:20;;;;;;;12.35;10.57;;;12.20;83.30;;;;;;5055214;28;20028;-44
2023/05/13 00:44:45;;;;;;;10.45;9.25;;;12.20;83.30;;;;;;5046970;28;20473;-44
2023/05/13 00:47:11;;;;;;;14.07;10.52;;;12.20;83.40;;;;;;5036075;28;20119;-46
2023/05/13 00:49:38;;;;;;;12.63;10.25;;;12.20;83.50;;;;;;5038194;28;20068;-47
2023/05/13 00:52:05;;;;;;;12.05;10.02;;;12.10;83.50;;;;;;5033947;28;20095;-44
2023/05/13 00:54:36;;;;;;;17.92;10.35;;;12.10;83.60;;;;;;5047242;28;20037;-43
2023/05/13 00:57:04;;;;;;;13.40;11.10;;;12.10;83.60;;;;;;5055488;28;20116;-44
2023/05/13 00:59:31;;;;;;;10.57;9.48;;;12.10;83.70;;;;;;5050159;28;20099;-44
2023/05/13 01:02:34;;;;;;;12.98;11.10;;;12.10;83.90;;;;;;5050811;28;20040;-44
2023/05/13 01:05:21;;;;;;;14.70;10.27;;;12.00;84.10;;;;;;5053256;28;20025;-44
2023/05/13 01:08:11;;;;;;;12.40;11.10;;;12.00;84.20;;;;;;5049744;28;20753;-45
2023/05/13 01:11:14;;;;;;;13.43;10.45;;;12.00;84.10;;;;;;5048363;28;20460;-44
2023/05/13 01:13:47;;;;;;;18.50;12.90;;;12.00;84.20;;;;;;4954286;29;20027;-45
2023/05/13 01:16:29;;;;;;;15.55;10.63;;;12.00;84.30;;;;;;4956918;28;20106;-44
2023/05/13 01:19:04;;;;;;;11.68;10.52;;;12.00;84.60;;;;;;4926524;28;20071;-44
2023/05/13 01:21:35;;;;;;;14.52;11.70;;;11.90;84.80;;;;;;4964893;28;20358;-45
2023/05/13 01:24:01;;;;;;;14.38;12.55;;;11.90;85.00;;;;;;4940423;29;20063;-45
2023/05/13 01:26:28;;;;;;;14.57;11.07;;;11.90;85.30;;;;;;4954631;28;20028;-44
2023/05/13 01:28:56;;;;;;;17.95;11.88;;;11.80;85.50;;;;;;4938176;28;20054;-44
2023/05/13 01:31:24;;;;;;;13.52;12.13;;;11.90;85.60;;;;;;4950192;28;20031;-43
2023/05/13 01:33:50;;;;;;;18.00;12.38;;;11.80;85.60;;;;;;4937261;29;20035;-45
2023/05/13 01:36:18;;;;;;;13.55;12.15;;;11.80;85.90;;;;;;4951065;28;20051;-43
2023/05/13 01:38:47;;;;;;;14.30;13.00;;;11.70;86.00;;;;;;4953469;29;20039;-47
2023/05/13 01:41:14;;;;;;;14.77;12.43;;;11.70;86.20;;;;;;4953445;28;20054;-44
2023/05/13 01:43:44;;;;;;;13.55;12.13;;;11.60;86.10;;;;;;4938149;29;20295;-45
2023/05/13 01:46:12;;;;;;;14.55;11.18;;;11.50;86.10;;;;;;4952658;28;20031;-46
2023/05/13 01:48:39;;;;;;;14.10;12.23;;;11.60;86.10;;;;;;5047279;28;20041;-45
2023/05/13 01:51:08;;;;;;;14.10;11.27;;;11.50;86.00;;;;;;5052653;28;20037;-44
2023/05/13 01:53:35;;;;;;;15.75;13.65;;;11.50;85.80;;;;;;5054599;28;20104;-43
2023/05/13 01:56:01;;;;;;;14.00;12.65;;;11.50;85.90;;;;;;5036041;28;20059;-44
2023/05/13 01:58:32;;;;;;;15.07;12.45;;;11.50;85.80;;;;;;5051428;28;20017;-44
2023/05/13 02:00:59;;;;;;;14.43;12.63;;;11.50;85.70;;;;;;5043630;28;20438;-45
2023/05/13 02:03:26;;;;;;;13.68;12.27;;;11.50;85.90;;;;;;5054149;28;20025;-44
2023/05/13 02:05:52;;;;;;;14.52;12.73;;;11.50;86.00;;;;;;5052388;28;20029;-44
2023/05/13 02:08:20;;;;;;;14.18;12.68;;;11.50;86.00;;;;;;5054301;28;20051;-45
2023/05/13 02:10:57;;;;;;;15.48;12.48;;;11.50;86.20;;;;;;5037945;28;20501;-44
2023/05/13 02:13:25;;;;;;;17.63;11.98;;;11.50;86.40;;;;;;5029714;28;20040;-44
2023/05/13 02:15:57;;;;;;;14.18;12.77;;;11.50;86.60;;;;;;5051364;28;20047;-44
2023/05/13 02:18:23;;;;;;;13.57;12.18;;;11.50;86.50;;;;;;5052505;28;20041;-44
2023/05/13 02:20:50;;;;;;;16.33;12.75;;;11.50;86.50;;;;;;5053677;28;20450;-44
2023/05/13 02:23:21;;;;;;;13.13;11.85;;;11.50;86.70;;;;;;5052069;28;20446;-44
2023/05/13 02:25:47;;;;;;;17.75;12.95;;;11.40;86.60;;;;;;5052387;28;20075;-44
2023/05/13 02:28:14;;;;;;;14.27;12.77;;;11.40;86.80;;;;;;5053130;28;20032;-45
2023/05/13 02:30:41;;;;;;;18.45;12.68;;;11.40;86.90;;;;;;5053222;28;20067;-44
2023/05/13 02:33:08;;;;;;;13.85;11.95;;;11.40;86.70;;;;;;5046149;28;20388;-45
2023/05/13 02:35:35;;;;;;;14.82;13.32;;;11.40;86.70;;;;;;5052545;28;20060;-44
2023/05/13 02:38:09;;;;;;;15.23;12.50;;;11.40;87.00;;;;;;5052151;28;20021;-43
2023/05/13 02:40:35;;;;;;;13.32;11.90;;;11.40;87.00;;;;;;5037132;28;20024;-44
2023/05/13 02:43:03;;;;;;;13.57;12.23;;;11.30;87.00;;;;;;5050382;28;20043;-44
2023/05/13 02:45:30;;;;;;;14.85;13.23;;;11.30;87.30;;;;;;5035172;28;20063;-44
2023/05/13 02:47:57;;;;;;;15.13;13.07;;;11.40;87.20;;;;;;5051065;28;20466;-44
2023/05/13 02:50:28;;;;;;;16.27;14.43;;;11.40;87.30;;;;;;5052884;28;20029;-49
2023/05/13 02:52:56;;;;;;;15.60;14.07;;;11.40;87.40;;;;;;5053434;28;20036;-47
2023/05/13 02:55:26;;;;;;;17.13;14.20;;;11.40;87.50;;;;;;5052230;28;20044;-44
2023/05/13 02:57:55;;;;;;;17.98;14.73;;;11.40;87.60;;;;;;5051192;28;20130;-44
2023/05/13 03:00:23;;;;;;;23.07;16.10;;;11.30;87.80;;;;;;5048780;28;20063;-44
2023/05/13 03:02:49;;;;;;;17.85;16.15;;;11.30;88.00;;;;;;5051302;28;20025;-44
2023/05/13 03:05:17;;;;;;;21.38;15.70;;;11.30;88.10;;;;;;5051305;28;20027;-45
2023/05/13 03:07:44;;;;;;;17.63;15.82;;;11.30;88.30;;;;;;5050790;28;20521;-44
2023/05/13 03:10:16;;;;;;;18.98;15.73;;;11.30;88.40;;;;;;5052839;28;20032;-44
2023/05/13 03:12:46;;;;;;;18.45;16.50;;;11.30;88.50;;;;;;5047402;28;20642;-44
2023/05/13 03:15:15;;;;;;;18.77;17.07;;;11.30;88.60;;;;;;5052332;28;20065;-43
2023/05/13 03:17:44;;;;;;;17.77;15.73;;;11.30;88.60;;;;;;5032717;28;20805;-46
2023/05/13 03:20:12;;;;;;;18.67;16.73;;;11.30;88.80;;;;;;5050464;28;20048;-44
2023/05/13 03:22:39;;;;;;;17.00;15.48;;;11.30;88.70;;;;;;5041197;28;20442;-44
2023/05/13 03:25:08;;;;;;;17.77;15.70;;;11.30;88.80;;;;;;5052020;28;20705;-45
2023/05/13 03:27:36;;;;;;;18.05;16.23;;;11.40;88.80;;;;;;5046945;28;20034;-44
2023/05/13 03:30:03;;;;;;;20.65;18.67;;;11.30;88.80;;;;;;5048075;28;20029;-46
2023/05/13 03:32:30;;;;;;;20.83;17.13;;;11.30;88.70;;;;;;5051009;28;20080;-44
2023/05/13 03:34:59;;;;;;;18.00;16.25;;;11.30;88.80;;;;;;5048922;28;20035;-46
2023/05/13 03:37:29;;;;;;;19.15;17.15;;;11.20;88.70;;;;;;5033307;28;20040;-44
2023/05/13 03:39:55;;;;;;;19.27;16.58;;;11.20;88.90;;;;;;5052325;28;20395;-45
2023/05/13 03:42:23;;;;;;;18.25;16.35;;;11.30;88.90;;;;;;5033400;28;20111;-44
2023/05/13 03:44:50;;;;;;;18.73;16.55;;;11.30;89.00;;;;;;5052330;28;20056;-43
2023/05/13 03:47:17;;;;;;;21.17;17.63;;;11.30;89.00;;;;;;5050862;28;20036;-45
2023/05/13 03:49:46;;;;;;;18.83;16.83;;;11.30;89.10;;;;;;5051356;28;20051;-44
2023/05/13 03:52:13;;;;;;;19.88;17.73;;;11.30;89.30;;;;;;5051077;28;20513;-44
2023/05/13 03:54:39;;;;;;;20.27;17.95;;;11.30;89.30;;;;;;5051481;28;20110;-45
2023/05/13 03:57:07;;;;;;;16.75;15.05;;;11.40;89.20;;;;;;5052285;28;20068;-43
2023/05/13 03:59:34;;;;;;;18.77;16.83;;;11.40;89.40;;;;;;5049620;28;20044;-43
2023/05/13 04:02:03;;;;;;;18.67;16.80;;;11.40;89.30;;;;;;5036532;28;20711;-44
2023/05/13 04:04:29;;;;;;;18.95;15.75;;;11.40;89.20;;;;;;5049473;28;20036;-44
2023/05/13 04:06:58;;;;;;;18.90;16.92;;;11.40;89.10;;;;;;5048088;28;20029;-43
2023/05/13 04:09:24;;;;;;;17.58;15.95;;;11.40;89.10;;;;;;5052545;28;20450;-43
2023/05/13 04:11:53;;;;;;;19.75;16.17;;;11.40;89.10;;;;;;5051223;28;20037;-43
2023/05/13 04:14:19;;;;;;;17.45;15.07;;;11.40;88.90;;;;;;5051491;28;20033;-43
2023/05/13 04:16:46;;;;;;;18.88;16.27;;;11.40;88.90;;;;;;5051737;28;20052;-46
2023/05/13 04:19:14;;;;;;;19.85;15.10;;;11.50;88.60;;;;;;5050119;28;20039;-44
2023/05/13 04:21:41;;;;;;;20.85;15.70;;;11.60;88.50;;;;;;5034101;28;20028;-45
2023/05/13 04:24:08;;;;;;;17.45;14.93;;;11.70;88.20;;;;;;5039106;28;20029;-44
2023/05/13 04:26:36;;;;;;;16.90;14.80;;;11.80;88.00;;;;;;5051134;28;20029;-48
2023/05/13 04:29:04;;;;;;;15.20;13.77;;;11.90;87.70;;;;;;5050690;28;20057;-44
2023/05/13 04:31:30;;;;;;;17.25;13.82;;;12.00;87.60;;;;;;5039991;28;20086;-43
2023/05/13 04:33:57;;;;;;;16.70;14.57;;;12.10;87.30;;;;;;5024401;28;20112;-43
2023/05/13 04:36:24;;;;;;;14.75;13.35;;;12.10;87.00;;;;;;5050664;28;20025;-43
2023/05/13 04:38:50;;;;;;;16.33;13.95;;;12.20;86.90;;;;;;5028573;28;20454;-44
2023/05/13 04:41:20;;;;;;;20.05;14.43;;;12.30;86.90;;;;;;5033317;28;20040;-44
2023/05/13 04:43:48;;;;;;;17.17;14.40;;;12.30;86.80;;;;;;5049251;28;20036;-43
2023/05/13 04:46:14;;;;;;;16.00;14.23;;;12.40;86.60;;;;;;5047559;28;20029;-45
2023/05/13 04:48:41;;;;;;;16.00;13.30;;;12.40;86.50;;;;;;5026978;28;20887;-47
2023/05/13 04:51:07;;;;;;;15.65;13.48;;;12.60;86.20;;;;;;5029103;28;20394;-45
2023/05/13 04:53:37;;;;;;;15.48;13.20;;;12.60;85.60;;;;;;5049944;28;20070;-44
2023/05/13 04:56:03;;;;;;;13.30;11.90;;;12.70;85.60;;;;;;5046694;28;20047;-45
2023/05/13 04:58:31;;;;;;;14.93;12.35;;;12.70;85.50;;;;;;5040388;28;20063;-44
2023/05/13 05:00:58;;;;;;;14.20;12.68;;;12.90;85.50;;;;;;5046885;28;20040;-44
2023/05/13 05:03:24;;;;;;;13.65;12.35;;;12.90;85.50;;;;;;5047053;28;20033;-44
2023/05/13 05:05:53;;;;;;;17.10;12.55;;;12.90;85.50;;;;;;5041284;28;20052;-45
2023/05/13 05:08:19;;;;;;;12.45;11.13;;;12.90;85.20;;;;;;5055865;28;20086;-44
2023/05/13 05:10:47;;;;;;;13.68;12.23;;;13.00;85.20;;;;;;5054245;28;20041;-45
2023/05/13 05:13:14;;;;;;;14.68;12.05;;;13.00;85.00;;;;;;5036738;28;20086;-44
2023/05/13 05:15:41;;;;;;;14.00;11.90;;;13.10;85.10;;;;;;5052732;28;20473;-45
2023/05/13 05:18:08;;;;;;;16.02;11.50;;;13.20;85.00;;;;;;5050573;28;20502;-45
2023/05/13 05:20:36;;;;;;;18.20;13.25;;;13.20;85.10;;;;;;5053080;28;20044;-44
2023/05/13 05:23:09;;;;;;;13.20;11.80;;;13.20;84.70;;;;;;5054395;28;20033;-44
2023/05/13 05:25:36;;;;;;;12.13;10.93;;;13.30;84.80;;;;;;5052733;28;20112;-44
2023/05/13 05:28:04;;;;;;;12.88;11.13;;;13.20;84.80;;;;;;5050545;28;20025;-44
2023/05/13 05:30:38;;;;;;;14.77;10.48;;;13.20;84.50;;;;;;5051724;28;20036;-44
2023/05/13 05:33:26;;;;;;;14.65;12.38;;;13.30;84.60;;;;;;5055710;28;20159;-44
2023/05/13 05:35:53;;;;;;;13.80;10.17;;;13.40;83.90;;;;;;5037888;28;20431;-46
2023/05/13 05:38:20;;;;;;;13.43;10.98;;;13.40;84.00;;;;;;5053723;28;20287;-46
2023/05/13 05:40:48;;;;;;;12.35;10.43;;;13.50;83.70;;;;;;5036998;28;20410;-47
2023/05/13 05:43:16;;;;;;;11.60;10.38;;;13.50;83.20;;;;;;5042757;28;20043;-45
2023/05/13 05:45:44;;;;;;;12.65;9.30;;;13.70;82.80;;;;;;5036818;28;20078;-49
2023/05/13 05:48:16;;;;;;;16.98;10.05;;;13.90;82.50;;;;;;5048227;28;20028;-48
2023/05/13 05:50:45;;;;;;;10.18;9.10;;;13.90;81.90;;;;;;5048322;28;20035;-46
2023/05/13 05:53:11;;;;;;;;;;;14.00;81.90;;;;;;5054675;28;20029;-46
2023/05/13 05:55:38;;;;;;;14.95;10.63;;;14.00;81.80;;;;;;5053624;28;19928;-44
2023/05/13 05:58:07;;;;;;;13.55;9.52;;;13.90;81.20;;;;;;5034994;28;20057;-47
2023/05/13 06:00:34;;;;;;;14.88;10.63;;;13.90;81.20;;;;;;5049323;28;20112;-45
2023/05/13 06:03:01;;;;;;;13.50;9.43;;;14.00;81.40;;;;;;5032172;28;20049;-44
2023/05/13 06:05:28;;;;;;;11.15;9.10;;;14.00;81.20;;;;;;5049382;28;20366;-44
2023/05/13 06:07:55;;;;;;;12.23;9.38;;;14.00;80.80;;;;;;5051778;28;20036;-45
2023/05/13 06:10:21;;;;;;;11.63;10.38;;;14.00;80.80;;;;;;5034004;28;20473;-47
2023/05/13 06:12:49;;;;;;;11.85;10.48;;;13.90;81.10;;;;;;5051174;28;20037;-44
2023/05/13 06:15:17;;;;;;;16.48;11.30;;;14.00;81.30;;;;;;5053205;28;20071;-44
2023/05/13 06:17:43;;;;;;;13.40;10.35;;;14.00;81.20;;;;;;5053754;28;20041;-44
2023/05/13 06:20:13;;;;;;;11.95;9.95;;;14.10;81.40;;;;;;5051750;28;20072;-45
2023/05/13 06:22:40;;;;;;;14.27;10.45;;;14.10;81.40;;;;;;5015062;28;20040;-45
2023/05/13 06:25:09;;;;;;;12.95;9.95;;;14.00;80.90;;;;;;5051752;28;20037;-45
2023/05/13 06:27:38;;;;;;;11.48;10.02;;;14.10;81.10;;;;;;5050042;28;20108;-45
2023/05/13 06:30:06;;;;;;;14.60;9.80;;;14.10;81.10;;;;;;5052904;28;20064;-50
2023/05/13 06:32:34;;;;;;;12.30;10.25;;;14.00;80.90;;;;;;5016780;28;20084;-47
2023/05/13 06:35:00;;;;;;;12.75;10.98;;;14.00;80.30;;;;;;5049446;28;20032;-45
2023/05/13 06:37:28;;;;;;;13.40;10.10;;;13.90;81.00;;;;;;5053220;28;20354;-45
2023/05/13 06:39:53;;;;;;;14.07;11.07;;;13.90;80.90;;;;;;5052386;28;20074;-47
2023/05/13 06:42:20;;;;;;;12.88;9.45;;;13.90;80.90;;;;;;5034227;28;20025;-45
2023/05/13 06:44:47;;;;;;;12.35;10.27;;;13.90;81.90;;;;;;5051606;28;20070;-48
2023/05/13 06:47:14;;;;;;;11.20;10.07;;;13.90;82.00;;;;;;5051297;28;20478;-48
2023/05/13 06:49:42;;;;;;;12.20;9.55;;;14.10;82.70;;;;;;5052340;28;20029;-45
2023/05/13 06:52:08;;;;;;;11.60;10.43;;;14.10;82.50;;;;;;5032915;28;20078;-44
2023/05/13 06:54:37;;;;;;;14.00;10.40;;;14.20;82.40;;;;;;5034854;28;20896;-45
2023/05/13 06:57:06;;;;;;;11.30;10.13;;;14.30;81.90;;;;;;5043437;28;20021;-46
2023/05/13 06:59:34;;;;;;;12.65;10.68;;;14.40;82.10;;;;;;5038141;28;20347;-45
2023/05/13 07:02:03;;;;;;;17.55;10.43;;;14.40;81.20;;;;;;5047354;28;20037;-45
2023/05/13 07:04:31;;;;;;;11.32;9.63;;;14.30;80.10;;;;;;5048158;28;20435;-45
2023/05/13 07:06:58;;;;;;;13.25;9.25;;;14.20;79.40;;;;;;5051561;28;20402;-45
2023/05/13 07:09:26;;;;;;;11.45;9.98;;;14.30;80.00;;;;;;5051441;28;20029;-47
2023/05/13 07:11:53;;;;;;;16.83;10.40;;;14.30;79.90;;;;;;5027965;28;20029;-45
2023/05/13 07:14:23;;;;;;;10.75;9.63;;;14.30;79.20;;;;;;5051489;28;20032;-47
2023/05/13 07:16:52;;;;;;;12.57;9.68;;;14.30;79.80;;;;;;5051160;28;20183;-46
2023/05/13 07:19:17;;;;;;;12.18;10.48;;;14.40;79.50;;;;;;5052013;28;20040;-46
2023/05/13 07:21:43;;;;;;;12.77;8.88;;;14.40;79.00;;;;;;5044300;28;20363;-45
2023/05/13 07:24:10;;;;;;;13.27;9.07;;;14.70;78.90;;;;;;5040889;28;20057;-45
2023/05/13 07:26:37;;;;;;;12.73;10.10;;;15.00;78.20;;;;;;5046762;28;20029;-45
2023/05/13 07:29:05;;;;;;;12.98;8.98;;;15.40;76.70;;;;;;5034985;28;20421;-47
2023/05/13 07:31:31;;;;;;;14.48;8.63;;;15.70;75.40;;;;;;5048604;28;20053;-45
2023/05/13 07:33:57;;;;;;;13.05;8.43;;;16.20;75.30;;;;;;5028046;28;20545;-47
2023/05/13 07:36:24;;;;;;;11.50;8.50;;;16.50;73.60;;;;;;5048432;28;20032;-47
2023/05/13 07:38:50;;;;;;;12.05;7.75;;;16.90;71.90;;;;;;5045976;28;20052;-45
2023/05/13 07:41:17;;;;;;;11.38;8.05;;;17.20;70.70;;;;;;5041940;28;20021;-45
2023/05/13 07:43:44;;;;;;;9.27;7.35;;;17.60;68.80;;;;;;5050285;28;20109;-45
2023/05/13 07:46:12;;;;;;;8.93;7.95;;;17.60;68.50;;;;;;5048699;28;20032;-45
2023/05/13 07:48:39;;;;;;;9.35;6.50;;;18.00;68.50;;;;;;5050296;28;20386;-45
2023/05/13 07:51:08;;;;;;;15.00;7.55;;;18.20;66.60;;;;;;5048543;28;20066;-46
2023/05/13 07:53:36;;;;;;;9.52;7.57;;;18.30;66.60;;;;;;5048597;28;20435;-45
2023/05/13 07:56:02;;;;;;;8.88;7.30;;;18.80;65.90;;;;;;5031352;28;20037;-46
2023/05/13 07:58:28;;;;;;;8.60;7.60;;;19.10;65.10;;;;;;5050980;28;20040;-44
2023/05/13 08:00:55;;;;;;;12.13;7.90;;;18.90;64.10;;;;;;5047557;28;20025;-49
2023/05/13 08:03:32;;;;;;;9.07;7.32;;;19.00;64.10;;;;;;5046151;28;20119;-48
2023/05/13 08:05:59;;;;;;;8.25;7.05;;;19.40;64.20;;;;;;5044851;28;20029;-45
2023/05/13 08:08:33;;;;;;;11.90;7.28;;;19.50;64.00;;;;;;5043487;28;20452;-48
2023/05/13 08:11:00;;;;;;;15.02;8.27;;;19.70;63.70;;;;;;5039438;28;20108;-47
2023/05/13 08:13:27;;;;;;;12.32;8.30;;;20.20;61.70;;;;;;5050470;28;20040;-45
2023/05/13 08:15:56;;;;;;;9.68;7.13;;;20.30;60.80;;;;;;5047311;28;20467;-50
2023/05/13 08:18:23;;;;;;;8.70;7.32;;;20.60;61.00;;;;;;5048468;28;20048;-50
2023/05/13 08:20:49;;;;;;;12.23;7.20;;;20.50;59.40;;;;;;5048530;28;20495;-48
2023/05/13 08:23:19;;;;;;;9.30;7.03;;;20.20;60.40;;;;;;5027125;28;20037;-45
2023/05/13 08:25:46;;;;;;;10.27;6.55;;;20.40;61.30;;;;;;5023392;28;20049;-45
2023/05/13 08:28:14;;;;;;;12.45;7.88;;;20.90;60.80;;;;;;5044646;28;20377;-52
2023/05/13 08:30:43;;;;;;;11.02;7.28;;;21.00;60.00;;;;;;5050283;28;20044;-50
2023/05/13 08:33:11;;;;;;;10.80;6.27;;;20.90;60.70;;;;;;5051879;28;20017;-50
2023/05/13 08:35:40;;;;;;;12.15;7.55;;;21.10;60.90;;;;;;5052793;28;20032;-45
2023/05/13 08:38:07;;;;;;;10.93;7.00;;;20.90;61.00;;;;;;5036763;28;20063;-48
2023/05/13 08:40:34;;;;;;;9.30;7.93;;;21.30;60.70;;;;;;5049661;28;20036;-48
2023/05/13 08:43:03;;;;;;;12.95;8.38;;;21.20;60.60;;;;;;5047524;28;20036;-47
2023/05/13 08:45:32;;;;;;;10.93;8.30;;;21.30;60.50;;;;;;5032743;28;20029;-45
2023/05/13 08:48:00;;;;;;;12.40;7.30;;;21.30;59.80;;;;;;5010742;28;20520;-47
2023/05/13 08:50:28;;;;;;;8.55;7.70;;;21.40;60.60;;;;;;5036386;28;20076;-46
2023/05/13 08:52:57;;;;;;;12.55;8.13;;;21.60;59.00;;;;;;5049948;28;20098;-47
2023/05/13 08:55:23;;;;;;;10.17;7.10;;;21.40;59.40;;;;;;5036463;28;20036;-46
2023/05/13 08:57:51;;;;;;;12.40;8.13;;;21.30;58.30;;;;;;5054410;28;20043;-46
2023/05/13 09:00:19;;;;;;;6.88;6.22;;;21.50;59.50;;;;;;5053034;28;20041;-48
2023/05/13 09:02:48;;;;;;;11.18;7.75;;;21.70;57.40;;;;;;5046763;28;20032;-46
2023/05/13 09:05:17;;;;;;;9.25;5.57;;;21.40;56.20;;;;;;5054141;28;20035;-50
2023/05/13 09:07:44;;;;;;;10.05;7.70;;;21.70;59.20;;;;;;5054365;28;20021;-45
2023/05/13 09:10:19;;;;;;;8.05;6.20;;;21.60;55.70;;;;;;5035652;28;20025;-45
2023/05/13 09:12:54;;;;;;;8.88;6.20;;;21.20;59.00;;;;;;5053083;28;20033;-45
2023/05/13 09:15:39;;;;;;;12.27;7.18;;;21.60;59.40;;;;;;5036789;28;20079;-46
2023/05/13 09:18:06;;;;;;;9.30;6.38;;;21.20;57.50;;;;;;5036872;28;20056;-47
2023/05/13 09:20:34;;;;;;;11.85;7.43;;;21.60;60.90;;;;;;5051928;28;20036;-48
2023/05/13 09:23:06;;;;;;;10.10;7.88;;;21.70;61.20;;;;;;5045793;28;20393;-45
2023/05/13 09:25:37;;;;;;;13.13;7.18;;;21.40;57.90;;;;;;5054161;28;20025;-46
2023/05/13 09:28:06;;;;;;;9.18;7.28;;;21.50;59.60;;;;;;5051813;28;20029;-47
2023/05/13 09:30:35;;;;;;;9.02;6.82;;;21.40;58.20;;;;;;5034676;28;20047;-46
2023/05/13 09:33:31;;;;;;;12.65;6.55;;;21.50;59.70;;;;;;5032944;28;20155;-47
2023/05/13 09:36:02;;;;;;;9.57;6.78;;;21.90;58.70;;;;;;5052963;28;20052;-46
2023/05/13 09:38:36;;;;;;;14.98;8.07;;;21.80;59.00;;;;;;5053596;28;20470;-46
2023/05/13 09:41:04;;;;;;;11.80;6.82;;;21.80;60.50;;;;;;5054370;28;20041;-46
2023/05/13 09:43:33;;;;;;;8.93;7.45;;;22.10;60.00;;;;;;5015627;28;20477;-47
2023/05/13 09:46:09;;;;;;;9.25;7.20;;;21.90;60.10;;;;;;5036949;28;20033;-46
2023/05/13 09:48:43;;;;;;;11.68;7.82;;;22.30;58.80;;;;;;5035940;28;20136;-50
2023/05/13 09:51:10;;;;;;;13.27;8.23;;;22.40;60.90;;;;;;5033612;28;20029;-48
2023/05/13 09:53:40;;;;;;;10.07;7.28;;;22.00;59.80;;;;;;5048928;28;20387;-48
2023/05/13 09:56:10;;;;;;;13.00;7.85;;;21.60;59.60;;;;;;5034459;28;20029;-46
2023/05/13 09:58:37;;;;;;;9.48;8.02;;;21.70;59.80;;;;;;5022929;28;20112;-46
2023/05/13 10:01:04;;;;;;;9.70;6.90;;;21.90;61.60;;;;;;5035840;28;20067;-49
2023/05/13 10:03:31;;;;;;;8.65;7.72;;;21.70;62.30;;;;;;5053492;28;20025;-47
2023/05/13 10:06:09;;;;;;;8.90;6.80;;;21.90;60.40;;;;;;5045295;28;20474;-46
2023/05/13 10:08:37;;;;;;;7.57;6.75;;;21.60;61.00;;;;;;5032203;28;20068;-50
2023/05/13 10:11:06;;;;;;;10.55;7.68;;;21.90;60.90;;;;;;5050750;28;20089;-46
2023/05/13 10:13:35;;;;;;;10.60;7.25;;;21.80;59.30;;;;;;5035308;28;20044;-47
2023/05/13 10:16:02;;;;;;;9.82;8.02;;;21.90;60.80;;;;;;5049043;28;20518;-48
2023/05/13 10:18:30;;;;;;;9.88;6.80;;;21.90;60.70;;;;;;5052614;28;20059;-46
2023/05/13 10:20:56;;;;;;;11.90;7.53;;;21.90;62.20;;;;;;5052061;28;20079;-48
2023/05/13 10:23:23;;;;;;;13.45;7.78;;;21.80;61.90;;;;;;5052441;28;20123;-47
2023/05/13 10:25:52;;;;;;;13.63;7.75;;;21.80;58.80;;;;;;5052908;28;20426;-48
2023/05/13 10:28:20;;;;;;;12.63;7.63;;;21.80;60.40;;;;;;5052370;28;20013;-46
2023/05/13 10:30:52;;;;;;;11.65;7.60;;;21.80;59.40;;;;;;5049513;28;20352;-47
2023/05/13 10:33:20;;;;;;;11.35;8.65;;;21.70;61.20;;;;;;5051782;28;20094;-47
2023/05/13 10:36:12;;;;;;;9.43;7.50;;;21.80;59.70;;;;;;5051311;28;20032;-46
2023/05/13 10:39:11;;;;;;;8.80;7.25;;;21.90;61.10;;;;;;5032995;28;20037;-47
2023/05/13 10:42:13;;;;;;;12.10;7.85;;;22.10;62.30;;;;;;5037253;28;20505;-48
2023/05/13 10:44:41;;;;;;;8.30;7.15;;;22.00;63.30;;;;;;5048456;28;20045;-47
2023/05/13 10:47:11;;;;;;;8.18;7.25;;;22.20;62.60;;;;;;5050919;28;20135;-46
2023/05/13 10:49:38;;;;;;;10.57;8.07;;;22.50;62.30;;;;;;5034341;28;20126;-48
2023/05/13 10:52:15;;;;;;;14.07;9.13;;;22.70;61.30;;;;;;5042443;28;20159;-49
2023/05/13 10:54:55;;;;;;;11.18;8.60;;;22.90;63.50;;;;;;5046076;28;20497;-46
2023/05/13 10:57:51;;;;;;;9.23;8.30;;;22.70;64.00;;;;;;5030503;28;20049;-47
2023/05/13 11:00:21;;;;;;;12.25;9.63;;;22.80;63.40;;;;;;5023620;28;20052;-46
2023/05/13 11:02:50;;;;;;;9.30;8.40;;;22.40;63.00;;;;;;5046091;28;20031;-46
2023/05/13 11:05:19;;;;;;;12.02;7.60;;;22.70;62.90;;;;;;5042796;28;20021;-48
2023/05/13 11:07:56;;;;;;;12.43;9.48;;;22.70;64.30;;;;;;5043342;28;20045;-46
2023/05/13 11:10:31;;;;;;;8.98;8.07;;;22.90;62.40;;;;;;5029972;28;20399;-49
2023/05/13 11:13:45;;;;;;;9.00;8.07;;;22.90;63.40;;;;;;5038868;28;20374;-46
2023/05/13 11:16:25;;;;;;;11.73;8.75;;;22.90;63.30;;;;;;5040933;28;20188;-47
2023/05/13 11:18:52;;;;;;;9.80;8.80;;;22.70;62.60;;;;;;5022658;28;20045;-50
2023/05/13 11:21:41;;;;;;;9.30;7.40;;;22.80;62.00;;;;;;5031211;28;20435;-47
2023/05/13 11:24:07;;;;;;;9.38;8.40;;;22.80;65.10;;;;;;5030700;28;20355;-47
2023/05/13 11:26:49;;;;;;;13.48;9.02;;;22.70;65.30;;;;;;5013250;28;20120;-48
2023/05/13 11:29:26;;;;;;;10.63;8.00;;;22.80;62.70;;;;;;5011600;28;20045;-49
2023/05/13 11:31:55;;;;;;;10.35;8.32;;;22.70;63.30;;;;;;5014004;28;20048;-48
2023/05/13 11:34:22;;;;;;;;;;;22.80;64.70;;;;;;5028559;28;20026;-46
2023/05/13 11:36:55;;;;;;;9.88;8.88;;;22.70;63.70;;;;;;5028931;28;20306;-46
2023/05/13 11:39:27;;;;;;;13.50;9.45;;;22.60;64.50;;;;;;5013530;28;20029;-46
2023/05/13 11:41:56;;;;;;;11.18;7.30;;;22.50;63.70;;;;;;5031807;28;20036;-46
2023/05/13 11:44:24;;;;;;;12.52;9.05;;;22.60;64.70;;;;;;5031439;28;20030;-46
2023/05/13 11:46:59;;;;;;;10.23;9.20;;;22.60;64.40;;;;;;5028538;28;20033;-46
2023/05/13 11:49:45;;;;;;;16.85;10.75;;;22.60;64.10;;;;;;5029888;28;20040;-46
2023/05/13 11:52:18;;;;;;;13.07;9.07;;;22.30;66.30;;;;;;5031538;28;20032;-46
2023/05/13 11:54:54;;;;;;;11.13;9.18;;;22.20;67.20;;;;;;5028657;28;20026;-46
2023/05/13 11:57:31;;;;;;;10.45;9.10;;;22.00;65.80;;;;;;5020742;28;20065;-46
2023/05/13 12:00:01;;;;;;;11.80;9.80;;;21.90;67.70;;;;;;5013598;28;20156;-48
2023/05/13 12:02:33;;;;;;;13.10;10.25;;;21.70;67.90;;;;;;5022299;28;20025;-45
2023/05/13 12:05:13;;;;;;;12.25;10.57;;;21.50;68.20;;;;;;5020808;28;20017;-45
2023/05/13 12:07:41;;;;;;;12.65;10.02;;;21.50;68.10;;;;;;5027404;28;20029;-45
2023/05/13 12:10:09;;;;;;;11.75;10.25;;;21.40;68.10;;;;;;5017166;28;20367;-45
2023/05/13 12:12:38;;;;;;;13.68;11.25;;;21.20;70.40;;;;;;5034960;28;20040;-49
2023/05/13 12:15:10;;;;;;;14.80;11.48;;;21.20;67.30;;;;;;5013105;28;20524;-47
2023/05/13 12:17:39;;;;;;;12.55;10.77;;;21.20;69.80;;;;;;5024613;28;20186;-46
2023/05/13 12:20:23;;;;;;;18.90;12.75;;;21.10;68.20;;;;;;5051435;28;20037;-47
2023/05/13 12:23:10;;;;;;;20.95;12.93;;;20.90;67.50;;;;;;5027243;28;20028;-46
2023/05/13 12:25:47;;;;;;;14.82;11.95;;;20.70;68.50;;;;;;5049185;28;20524;-47
2023/05/13 12:28:23;;;;;;;12.15;10.68;;;20.60;70.50;;;;;;5049045;28;20075;-45
2023/05/13 12:31:16;;;;;;;15.90;12.23;;;20.80;70.30;;;;;;5053827;28;20040;-45
2023/05/13 12:33:48;;;;;;;15.07;11.55;;;20.60;69.20;;;;;;5051506;28;20512;-45
2023/05/13 12:36:20;;;;;;;14.40;11.02;;;20.60;71.20;;;;;;5055769;28;20041;-47
2023/05/13 12:39:05;;;;;;;11.88;10.68;;;20.70;70.70;;;;;;5055323;28;20033;-46
2023/05/13 12:41:38;;;;;;;13.10;10.30;;;20.70;70.80;;;;;;5033215;28;20033;-46
2023/05/13 12:44:07;;;;;;;13.10;10.43;;;20.80;70.20;;;;;;5033837;28;20049;-46
2023/05/13 12:46:34;;;;;;;13.93;11.05;;;20.80;69.60;;;;;;5037694;28;20041;-47